Chart 1
 

(A maximum of 50 rows are displayed here. Use "Export Data" to see all rows in the date range.)
Date Collected Temp WindChill
(Celcius)
WindSpeed
(km/hr)
Gust
(km/hr)
Wind Direction
(degrees)
2022-05-18 01:00 4.2 1.8 5 10 51
2022-05-18 00:00 4.6 3.1 4 8 49
2022-05-17 23:00 5.0 4.3 3 6 52
2022-05-17 22:00 5.2 5.1 2 6 43
2022-05-17 21:00 5.7 5.8 2 5 36
2022-05-17 20:00 6.7 6.7 1 3 18
2022-05-17 19:00 8.1 8.4 0 1 293
2022-05-17 18:00 10.6 10.7 1 3 207
2022-05-17 17:00 12.5 12.2 3 7 210
2022-05-17 16:00 14.2 14.2 0 0 217
2022-05-17 15:00 14.7 13.9 4 10 201
2022-05-17 14:00 15.3 13.9 4 11 201
2022-05-17 13:00 15.1 14.0 4 10 195
2022-05-17 12:00 14.7 14.0 3 11 196
2022-05-17 11:00 14.9 13.4 4 10 227
2022-05-17 10:00 12.4 12.2 2 5 210
2022-05-17 09:00 8.6 8.3 1 3 40
2022-05-17 08:00 6.4 6.2 2 5 39
2022-05-17 07:00 5.2 5.1 2 5 42
2022-05-17 06:00 4.7 4.8 1 4 43
2022-05-17 05:00 5.3 5.3 1 3 48
2022-05-17 04:00 4.8 4.6 2 3 43
2022-05-17 03:00 4.6 4.7 1 3 63
2022-05-17 02:00 5.0 5.0 2 5 35
2022-05-17 01:00 5.3 5.3 2 5 40
2022-05-17 00:00 5.6 5.6 1 2 37
2022-05-16 23:00 6.1 6.2 1 3 59
2022-05-16 22:00 6.3 6.3 1 3 41
2022-05-16 21:00 6.7 6.7 0 1 319
2022-05-16 20:00 7.8 7.9 1 3 47
2022-05-16 19:00 9.5 9.7 0 1 57
2022-05-16 18:00 11.4 11.7 1 3 236
2022-05-16 17:00 13.2 12.9 3 8 213
2022-05-16 16:00 14.2 13.5 4 8 178
2022-05-16 15:00 15.3 13.0 5 13 210
2022-05-16 14:00 14.9 13.8 4 9 222
2022-05-16 13:00 15.2 14.0 4 9 221
2022-05-16 12:00 14.1 13.6 3 8 209
2022-05-16 11:00 14.0 12.9 4 7 225
2022-05-16 10:00 11.2 11.1 1 4 199
2022-05-16 09:00 6.9 6.5 1 2 22
2022-05-16 08:00 2.4 2.3 0 1 1
2022-05-16 07:00 2.3 2.2 1 2 46
2022-05-16 06:00 2.6 2.6 1 3 56
2022-05-16 05:00 3.0 3.1 1 2 6
2022-05-16 04:00 3.3 3.3 1 3 17
2022-05-16 03:00 3.5 3.5 0 2 45
2022-05-16 02:00 3.9 4.0 0 2 24
2022-05-16 01:00 5.0 5.1 0 1 23
2022-05-16 00:00 6.2 6.3 1 1 14